sensor_id;sensor_type;location;lat;lon;timestamp;temperature;humidity
8372;DHT22;4223;48.724;8.982;2022-07-19T00:02:00;17.40;1.00
8372;DHT22;4223;48.724;8.982;2022-07-19T00:04:27;17.40;1.00
8372;DHT22;4223;48.724;8.982;2022-07-19T00:06:54;17.40;1.00
8372;DHT22;4223;48.724;8.982;2022-07-19T00:09:23;17.30;1.00
8372;DHT22;4223;48.724;8.982;2022-07-19T00:11:50;17.30;1.00
8372;DHT22;4223;48.724;8.982;2022-07-19T00:14:17;17.20;99.90
8372;DHT22;4223;48.724;8.982;2022-07-19T00:16:44;17.20;1.00
8372;DHT22;4223;48.724;8.982;2022-07-19T00:19:11;17.20;1.00
8372;DHT22;4223;48.724;8.982;2022-07-19T00:21:38;17.10;99.90
8372;DHT22;4223;48.724;8.982;2022-07-19T00:24:05;17.10;1.00
8372;DHT22;4223;48.724;8.982;2022-07-19T00:26:33;17.00;1.00
8372;DHT22;4223;48.724;8.982;2022-07-19T00:29:00;17.00;1.00
8372;DHT22;4223;48.724;8.982;2022-07-19T00:31:28;16.90;1.00
8372;DHT22;4223;48.724;8.982;2022-07-19T00:33:55;16.90;27.10
8372;DHT22;4223;48.724;8.982;2022-07-19T00:36:22;16.90;1.00
8372;DHT22;4223;48.724;8.982;2022-07-19T00:38:49;16.90;1.00
8372;DHT22;4223;48.724;8.982;2022-07-19T00:41:16;16.90;42.10
8372;DHT22;4223;48.724;8.982;2022-07-19T00:43:44;16.80;1.00
8372;DHT22;4223;48.724;8.982;2022-07-19T00:46:12;16.70;1.00
8372;DHT22;4223;48.724;8.982;2022-07-19T00:48:40;16.60;99.90
8372;DHT22;4223;48.724;8.982;2022-07-19T00:51:07;16.60;57.10
8372;DHT22;4223;48.724;8.982;2022-07-19T00:53:36;16.60;99.90
8372;DHT22;4223;48.724;8.982;2022-07-19T00:56:03;16.60;99.90
8372;DHT22;4223;48.724;8.982;2022-07-19T00:58:31;16.60;99.90
8372;DHT22;4223;48.724;8.982;2022-07-19T01:01:02;16.50;1.00
8372;DHT22;4223;48.724;8.982;2022-07-19T01:03:29;16.60;99.90
8372;DHT22;4223;48.724;8.982;2022-07-19T01:05:57;16.60;99.90
8372;DHT22;4223;48.724;8.982;2022-07-19T01:08:24;16.50;1.00
8372;DHT22;4223;48.724;8.982;2022-07-19T01:10:51;16.50;99.90
8372;DHT22;4223;48.724;8.982;2022-07-19T01:13:18;16.40;99.90
8372;DHT22;4223;48.724;8.982;2022-07-19T01:15:45;16.40;99.90
8372;DHT22;4223;48.724;8.982;2022-07-19T01:18:13;16.40;99.90
8372;DHT22;4223;48.724;8.982;2022-07-19T01:20:40;16.30;99.90
8372;DHT22;4223;48.724;8.982;2022-07-19T01:23:08;16.30;99.90
8372;DHT22;4223;48.724;8.982;2022-07-19T01:25:36;16.30;99.90
8372;DHT22;4223;48.724;8.982;2022-07-19T01:28:05;16.20;99.90
8372;DHT22;4223;48.724;8.982;2022-07-19T01:30:33;16.20;99.90
8372;DHT22;4223;48.724;8.982;2022-07-19T01:33:00;16.00;99.90
8372;DHT22;4223;48.724;8.982;2022-07-19T01:35:27;16.10;1.00
8372;DHT22;4223;48.724;8.982;2022-07-19T01:37:55;16.00;99.90
8372;DHT22;4223;48.724;8.982;2022-07-19T01:40:23;16.10;1.00
8372;DHT22;4223;48.724;8.982;2022-07-19T01:42:51;16.00;1.00
8372;DHT22;4223;48.724;8.982;2022-07-19T01:45:19;15.90;1.00
8372;DHT22;4223;48.724;8.982;2022-07-19T01:47:46;15.90;1.00
8372;DHT22;4223;48.724;8.982;2022-07-19T01:50:15;15.90;1.00
8372;DHT22;4223;48.724;8.982;2022-07-19T01:52:43;15.90;1.00
8372;DHT22;4223;48.724;8.982;2022-07-19T01:55:10;15.90;1.00
8372;DHT22;4223;48.724;8.982;2022-07-19T01:57:38;15.80;99.90
8372;DHT22;4223;48.724;8.982;2022-07-19T02:00:07;15.80;1.00
8372;DHT22;4223;48.724;8.982;2022-07-19T02:02:34;15.80;74.90
8372;DHT22;4223;48.724;8.982;2022-07-19T02:05:01;15.80;1.00
8372;DHT22;4223;48.724;8.982;2022-07-19T02:07:29;15.70;1.00
8372;DHT22;4223;48.724;8.982;2022-07-19T02:09:56;15.70;99.90
8372;DHT22;4223;48.724;8.982;2022-07-19T02:12:24;15.70;99.90
8372;DHT22;4223;48.724;8.982;2022-07-19T02:14:52;15.70;1.00
8372;DHT22;4223;48.724;8.982;2022-07-19T02:17:19;15.70;1.00
8372;DHT22;4223;48.724;8.982;2022-07-19T02:19:46;15.70;1.00
8372;DHT22;4223;48.724;8.982;2022-07-19T02:22:13;15.70;1.00
8372;DHT22;4223;48.724;8.982;2022-07-19T02:24:40;15.70;1.00
8372;DHT22;4223;48.724;8.982;2022-07-19T02:27:09;15.60;99.90
8372;DHT22;4223;48.724;8.982;2022-07-19T02:29:36;15.50;99.90
8372;DHT22;4223;48.724;8.982;2022-07-19T02:32:05;15.40;1.00
8372;DHT22;4223;48.724;8.982;2022-07-19T02:34:33;15.40;1.00
8372;DHT22;4223;48.724;8.982;2022-07-19T02:36:59;15.40;1.00
8372;DHT22;4223;48.724;8.982;2022-07-19T02:39:27;15.40;99.90
8372;DHT22;4223;48.724;8.982;2022-07-19T02:41:54;15.30;99.90
8372;DHT22;4223;48.724;8.982;2022-07-19T02:44:21;15.30;99.90
8372;DHT22;4223;48.724;8.982;2022-07-19T02:46:48;15.30;1.00
8372;DHT22;4223;48.724;8.982;2022-07-19T02:49:17;15.30;99.90
8372;DHT22;4223;48.724;8.982;2022-07-19T02:51:44;15.30;1.00
8372;DHT22;4223;48.724;8.982;2022-07-19T02:54:10;15.30;99.90
8372;DHT22;4223;48.724;8.982;2022-07-19T02:56:37;15.20;99.90
8372;DHT22;4223;48.724;8.982;2022-07-19T02:59:05;15.20;99.90
8372;DHT22;4223;48.724;8.982;2022-07-19T03:01:32;15.20;11.40
8372;DHT22;4223;48.724;8.982;2022-07-19T03:03:59;15.10;1.00
8372;DHT22;4223;48.724;8.982;2022-07-19T03:06:27;15.20;52.10
8372;DHT22;4223;48.724;8.982;2022-07-19T03:08:54;15.10;1.00
8372;DHT22;4223;48.724;8.982;2022-07-19T03:11:21;15.00;1.00
8372;DHT22;4223;48.724;8.982;2022-07-19T03:13:48;15.00;1.00
8372;DHT22;4223;48.724;8.982;2022-07-19T03:16:15;14.80;99.90
8372;DHT22;4223;48.724;8.982;2022-07-19T03:18:42;14.80;99.90
8372;DHT22;4223;48.724;8.982;2022-07-19T03:21:09;14.80;99.90
8372;DHT22;4223;48.724;8.982;2022-07-19T03:23:37;14.90;72.80
8372;DHT22;4223;48.724;8.982;2022-07-19T03:26:05;14.90;99.90
8372;DHT22;4223;48.724;8.982;2022-07-19T03:28:32;14.80;99.90
8372;DHT22;4223;48.724;8.982;2022-07-19T03:30:59;14.90;1.00
8372;DHT22;4223;48.724;8.982;2022-07-19T03:33:26;14.80;99.90
8372;DHT22;4223;48.724;8.982;2022-07-19T03:35:53;14.70;99.90
8372;DHT22;4223;48.724;8.982;2022-07-19T03:38:20;14.70;1.00
8372;DHT22;4223;48.724;8.982;2022-07-19T03:40:48;14.70;1.00
8372;DHT22;4223;48.724;8.982;2022-07-19T03:43:16;14.70;99.90
8372;DHT22;4223;48.724;8.982;2022-07-19T03:45:44;14.70;1.00
8372;DHT22;4223;48.724;8.982;2022-07-19T03:48:12;14.70;99.90
8372;DHT22;4223;48.724;8.982;2022-07-19T03:50:39;14.70;82.70
8372;DHT22;4223;48.724;8.982;2022-07-19T03:53:06;14.70;1.00
8372;DHT22;4223;48.724;8.982;2022-07-19T03:55:33;14.60;1.00
8372;DHT22;4223;48.724;8.982;2022-07-19T03:58:02;15.20;99.90
8372;DHT22;4223;48.724;8.982;2022-07-19T04:00:29;14.60;1.00
8372;DHT22;4223;48.724;8.982;2022-07-19T04:02:56;14.70;99.90
8372;DHT22;4223;48.724;8.982;2022-07-19T04:05:23;14.60;99.90
8372;DHT22;4223;48.724;8.982;2022-07-19T04:07:50;14.70;99.90
8372;DHT22;4223;48.724;8.982;2022-07-19T04:10:17;14.70;43.90
8372;DHT22;4223;48.724;8.982;2022-07-19T04:12:44;14.70;1.00
8372;DHT22;4223;48.724;8.982;2022-07-19T04:15:12;14.60;1.00
8372;DHT22;4223;48.724;8.982;2022-07-19T04:17:39;14.60;99.90
8372;DHT22;4223;48.724;8.982;2022-07-19T04:20:06;14.70;1.00
8372;DHT22;4223;48.724;8.982;2022-07-19T04:22:33;14.70;99.90
8372;DHT22;4223;48.724;8.982;2022-07-19T04:25:00;14.70;55.90
8372;DHT22;4223;48.724;8.982;2022-07-19T04:27:29;14.70;99.90
8372;DHT22;4223;48.724;8.982;2022-07-19T04:29:56;14.70;1.00
8372;DHT22;4223;48.724;8.982;2022-07-19T04:32:24;14.70;1.00
8372;DHT22;4223;48.724;8.982;2022-07-19T04:34:51;14.80;1.00
8372;DHT22;4223;48.724;8.982;2022-07-19T04:37:19;14.80;1.00
8372;DHT22;4223;48.724;8.982;2022-07-19T04:39:45;14.80;99.90
8372;DHT22;4223;48.724;8.982;2022-07-19T04:42:12;14.90;1.00
8372;DHT22;4223;48.724;8.982;2022-07-19T04:44:39;14.90;1.00
8372;DHT22;4223;48.724;8.982;2022-07-19T04:47:06;15.00;99.90
8372;DHT22;4223;48.724;8.982;2022-07-19T04:49:34;15.10;1.00
8372;DHT22;4223;48.724;8.982;2022-07-19T04:52:01;15.10;99.90
8372;DHT22;4223;48.724;8.982;2022-07-19T04:54:28;15.20;2.30
8372;DHT22;4223;48.724;8.982;2022-07-19T04:56:55;15.20;15.10
8372;DHT22;4223;48.724;8.982;2022-07-19T04:59:22;15.30;99.90
8372;DHT22;4223;48.724;8.982;2022-07-19T05:01:49;15.40;99.90
8372;DHT22;4223;48.724;8.982;2022-07-19T05:04:15;15.50;1.00
8372;DHT22;4223;48.724;8.982;2022-07-19T05:06:44;15.60;1.00
8372;DHT22;4223;48.724;8.982;2022-07-19T05:09:11;15.60;20.20
8372;DHT22;4223;48.724;8.982;2022-07-19T05:11:38;15.70;1.00
8372;DHT22;4223;48.724;8.982;2022-07-19T05:14:04;15.80;99.90
8372;DHT22;4223;48.724;8.982;2022-07-19T05:16:31;15.90;1.00
8372;DHT22;4223;48.724;8.982;2022-07-19T05:18:58;16.00;1.00
8372;DHT22;4223;48.724;8.982;2022-07-19T05:21:25;16.10;99.90
8372;DHT22;4223;48.724;8.982;2022-07-19T05:23:53;16.30;99.90
8372;DHT22;4223;48.724;8.982;2022-07-19T05:26:20;16.30;1.00
8372;DHT22;4223;48.724;8.982;2022-07-19T05:28:47;16.40;1.00
8372;DHT22;4223;48.724;8.982;2022-07-19T05:31:14;16.50;1.00
8372;DHT22;4223;48.724;8.982;2022-07-19T05:33:41;16.50;1.00
8372;DHT22;4223;48.724;8.982;2022-07-19T05:36:08;16.60;12.20
8372;DHT22;4223;48.724;8.982;2022-07-19T05:38:36;16.70;1.00
8372;DHT22;4223;48.724;8.982;2022-07-19T05:41:06;16.80;99.90
8372;DHT22;4223;48.724;8.982;2022-07-19T05:43:34;16.90;1.00
8372;DHT22;4223;48.724;8.982;2022-07-19T05:46:01;17.10;99.90
8372;DHT22;4223;48.724;8.982;2022-07-19T05:48:28;17.30;30.20
8372;DHT22;4223;48.724;8.982;2022-07-19T05:50:56;17.30;17.20
8372;DHT22;4223;48.724;8.982;2022-07-19T05:53:23;17.40;99.90
8372;DHT22;4223;48.724;8.982;2022-07-19T05:55:50;17.50;99.90
8372;DHT22;4223;48.724;8.982;2022-07-19T05:58:18;17.60;72.80
8372;DHT22;4223;48.724;8.982;2022-07-19T06:00:45;17.70;1.00
8372;DHT22;4223;48.724;8.982;2022-07-19T06:03:26;17.80;1.00
8372;DHT22;4223;48.724;8.982;2022-07-19T06:05:53;17.90;1.00
8372;DHT22;4223;48.724;8.982;2022-07-19T06:08:19;18.10;1.00
8372;DHT22;4223;48.724;8.982;2022-07-19T06:10:46;18.20;1.00
8372;DHT22;4223;48.724;8.982;2022-07-19T06:13:13;18.30;1.00
8372;DHT22;4223;48.724;8.982;2022-07-19T06:15:41;18.50;1.00
8372;DHT22;4223;48.724;8.982;2022-07-19T06:18:08;18.60;1.00
8372;DHT22;4223;48.724;8.982;2022-07-19T06:20:35;18.70;1.00
8372;DHT22;4223;48.724;8.982;2022-07-19T06:23:02;18.90;1.00
8372;DHT22;4223;48.724;8.982;2022-07-19T06:25:29;19.20;1.00
8372;DHT22;4223;48.724;8.982;2022-07-19T06:27:56;19.40;1.00
8372;DHT22;4223;48.724;8.982;2022-07-19T06:30:23;19.60;1.00
8372;DHT22;4223;48.724;8.982;2022-07-19T06:32:51;19.70;1.00
8372;DHT22;4223;48.724;8.982;2022-07-19T06:35:18;19.90;1.00
8372;DHT22;4223;48.724;8.982;2022-07-19T06:37:45;20.10;99.90
8372;DHT22;4223;48.724;8.982;2022-07-19T06:40:12;20.20;99.90
8372;DHT22;4223;48.724;8.982;2022-07-19T06:42:39;20.40;99.90
8372;DHT22;4223;48.724;8.982;2022-07-19T06:45:07;20.70;99.90
8372;DHT22;4223;48.724;8.982;2022-07-19T06:47:34;20.80;99.90
8372;DHT22;4223;48.724;8.982;2022-07-19T06:50:02;21.00;99.90
8372;DHT22;4223;48.724;8.982;2022-07-19T06:52:29;21.30;99.90
8372;DHT22;4223;48.724;8.982;2022-07-19T06:54:56;21.60;99.90
8372;DHT22;4223;48.724;8.982;2022-07-19T06:57:23;21.80;99.90
8372;DHT22;4223;48.724;8.982;2022-07-19T06:59:50;22.00;99.90
8372;DHT22;4223;48.724;8.982;2022-07-19T07:02:17;22.20;99.90
8372;DHT22;4223;48.724;8.982;2022-07-19T07:04:43;22.40;99.90
8372;DHT22;4223;48.724;8.982;2022-07-19T07:07:12;22.70;99.90
8372;DHT22;4223;48.724;8.982;2022-07-19T07:09:39;22.90;99.90
8372;DHT22;4223;48.724;8.982;2022-07-19T07:12:07;23.10;99.90
8372;DHT22;4223;48.724;8.982;2022-07-19T07:14:34;23.40;99.90
8372;DHT22;4223;48.724;8.982;2022-07-19T07:17:01;23.80;99.90
8372;DHT22;4223;48.724;8.982;2022-07-19T07:19:28;24.10;99.90
8372;DHT22;4223;48.724;8.982;2022-07-19T07:21:55;24.30;99.90
8372;DHT22;4223;48.724;8.982;2022-07-19T07:24:24;24.60;99.90
8372;DHT22;4223;48.724;8.982;2022-07-19T07:26:51;24.90;99.90
8372;DHT22;4223;48.724;8.982;2022-07-19T07:29:18;25.20;99.90
8372;DHT22;4223;48.724;8.982;2022-07-19T07:31:44;25.60;99.40
8372;DHT22;4223;48.724;8.982;2022-07-19T07:34:11;26.00;94.30
8372;DHT22;4223;48.724;8.982;2022-07-19T07:36:38;26.20;80.70
8372;DHT22;4223;48.724;8.982;2022-07-19T07:39:05;26.70;75.50
8372;DHT22;4223;48.724;8.982;2022-07-19T07:41:33;27.00;74.60
8372;DHT22;4223;48.724;8.982;2022-07-19T07:44:00;27.50;67.80
8372;DHT22;4223;48.724;8.982;2022-07-19T07:46:27;27.90;67.10
8372;DHT22;4223;48.724;8.982;2022-07-19T07:48:54;28.70;63.30
8372;DHT22;4223;48.724;8.982;2022-07-19T07:51:21;28.90;55.80
8372;DHT22;4223;48.724;8.982;2022-07-19T07:53:48;29.30;58.00
8372;DHT22;4223;48.724;8.982;2022-07-19T07:56:15;29.70;49.70
8372;DHT22;4223;48.724;8.982;2022-07-19T07:58:43;30.30;45.40
8372;DHT22;4223;48.724;8.982;2022-07-19T08:01:10;31.00;47.20
8372;DHT22;4223;48.724;8.982;2022-07-19T08:03:37;30.70;37.90
8372;DHT22;4223;48.724;8.982;2022-07-19T08:06:05;30.90;38.00
8372;DHT22;4223;48.724;8.982;2022-07-19T08:08:31;30.80;30.20
8372;DHT22;4223;48.724;8.982;2022-07-19T08:10:58;30.70;31.50
8372;DHT22;4223;48.724;8.982;2022-07-19T08:13:25;31.50;30.60
8372;DHT22;4223;48.724;8.982;2022-07-19T08:15:54;30.90;30.00
8372;DHT22;4223;48.724;8.982;2022-07-19T08:18:21;31.30;30.50
8372;DHT22;4223;48.724;8.982;2022-07-19T08:20:48;31.60;30.10
8372;DHT22;4223;48.724;8.982;2022-07-19T08:23:14;31.20;30.00
8372;DHT22;4223;48.724;8.982;2022-07-19T08:25:41;31.80;30.60
8372;DHT22;4223;48.724;8.982;2022-07-19T08:28:08;32.10;30.40
8372;DHT22;4223;48.724;8.982;2022-07-19T08:30:35;32.00;30.50
8372;DHT22;4223;48.724;8.982;2022-07-19T08:33:03;32.10;30.20
8372;DHT22;4223;48.724;8.982;2022-07-19T08:35:34;32.10;30.90
8372;DHT22;4223;48.724;8.982;2022-07-19T08:38:01;32.20;30.30
8372;DHT22;4223;48.724;8.982;2022-07-19T08:40:28;32.80;30.90
8372;DHT22;4223;48.724;8.982;2022-07-19T08:42:57;32.70;31.30
8372;DHT22;4223;48.724;8.982;2022-07-19T08:45:25;33.30;31.30
8372;DHT22;4223;48.724;8.982;2022-07-19T08:47:55;33.60;31.90
8372;DHT22;4223;48.724;8.982;2022-07-19T08:50:25;33.50;31.40
8372;DHT22;4223;48.724;8.982;2022-07-19T08:52:53;33.60;31.40
8372;DHT22;4223;48.724;8.982;2022-07-19T08:55:20;33.50;32.10
8372;DHT22;4223;48.724;8.982;2022-07-19T08:57:46;33.60;31.50
8372;DHT22;4223;48.724;8.982;2022-07-19T09:00:27;33.70;31.40
8372;DHT22;4223;48.724;8.982;2022-07-19T09:02:56;33.50;31.30
8372;DHT22;4223;48.724;8.982;2022-07-19T09:05:26;33.90;32.40
8372;DHT22;4223;48.724;8.982;2022-07-19T09:08:05;34.50;32.10
8372;DHT22;4223;48.724;8.982;2022-07-19T09:10:34;34.60;32.10
8372;DHT22;4223;48.724;8.982;2022-07-19T09:13:03;34.50;31.70
8372;DHT22;4223;48.724;8.982;2022-07-19T09:15:42;34.70;32.00
8372;DHT22;4223;48.724;8.982;2022-07-19T09:18:12;35.30;32.70
8372;DHT22;4223;48.724;8.982;2022-07-19T09:20:40;34.50;29.30
8372;DHT22;4223;48.724;8.982;2022-07-19T09:23:07;34.30;27.10
8372;DHT22;4223;48.724;8.982;2022-07-19T09:25:36;34.10;29.00
8372;DHT22;4223;48.724;8.982;2022-07-19T09:28:03;34.00;25.60
8372;DHT22;4223;48.724;8.982;2022-07-19T09:30:38;34.30;31.40
8372;DHT22;4223;48.724;8.982;2022-07-19T09:33:11;34.20;27.50
8372;DHT22;4223;48.724;8.982;2022-07-19T09:35:42;33.60;26.10
8372;DHT22;4223;48.724;8.982;2022-07-19T09:38:20;34.10;27.50
8372;DHT22;4223;48.724;8.982;2022-07-19T09:40:48;34.30;26.10
8372;DHT22;4223;48.724;8.982;2022-07-19T09:43:16;34.30;26.80
8372;DHT22;4223;48.724;8.982;2022-07-19T09:45:45;34.20;28.00
8372;DHT22;4223;48.724;8.982;2022-07-19T09:48:11;34.00;25.40
8372;DHT22;4223;48.724;8.982;2022-07-19T09:50:40;34.20;28.20
8372;DHT22;4223;48.724;8.982;2022-07-19T09:53:07;34.50;28.00
8372;DHT22;4223;48.724;8.982;2022-07-19T09:55:35;34.70;24.80
8372;DHT22;4223;48.724;8.982;2022-07-19T09:58:03;35.00;26.90
8372;DHT22;4223;48.724;8.982;2022-07-19T10:00:31;35.00;23.70
8372;DHT22;4223;48.724;8.982;2022-07-19T10:03:00;34.90;24.20
8372;DHT22;4223;48.724;8.982;2022-07-19T10:05:28;34.90;23.30
8372;DHT22;4223;48.724;8.982;2022-07-19T10:07:57;34.70;25.20
8372;DHT22;4223;48.724;8.982;2022-07-19T10:10:25;34.50;23.10
8372;DHT22;4223;48.724;8.982;2022-07-19T10:12:56;34.40;23.00
8372;DHT22;4223;48.724;8.982;2022-07-19T10:15:23;34.60;23.30
8372;DHT22;4223;48.724;8.982;2022-07-19T10:18:03;34.60;23.00
8372;DHT22;4223;48.724;8.982;2022-07-19T10:20:31;35.00;25.00
8372;DHT22;4223;48.724;8.982;2022-07-19T10:23:01;35.40;23.30
8372;DHT22;4223;48.724;8.982;2022-07-19T10:25:44;34.70;21.50
8372;DHT22;4223;48.724;8.982;2022-07-19T10:28:31;34.10;21.30
8372;DHT22;4223;48.724;8.982;2022-07-19T10:30:59;34.40;22.80
8372;DHT22;4223;48.724;8.982;2022-07-19T10:33:36;34.30;23.10
8372;DHT22;4223;48.724;8.982;2022-07-19T10:36:31;34.70;21.30
8372;DHT22;4223;48.724;8.982;2022-07-19T10:39:30;34.20;20.00
8372;DHT22;4223;48.724;8.982;2022-07-19T10:42:11;34.30;19.40
8372;DHT22;4223;48.724;8.982;2022-07-19T10:45:11;34.40;21.20
8372;DHT22;4223;48.724;8.982;2022-07-19T10:48:01;34.50;18.70
8372;DHT22;4223;48.724;8.982;2022-07-19T10:50:57;34.50;19.40
8372;DHT22;4223;48.724;8.982;2022-07-19T10:56:58;35.00;18.80
8372;DHT22;4223;48.724;8.982;2022-07-19T10:59:39;34.80;16.90
8372;DHT22;4223;48.724;8.982;2022-07-19T11:02:07;34.50;20.20
8372;DHT22;4223;48.724;8.982;2022-07-19T11:04:47;34.50;20.00
8372;DHT22;4223;48.724;8.982;2022-07-19T11:07:17;34.80;19.10
8372;DHT22;4223;48.724;8.982;2022-07-19T11:09:47;34.40;16.30
8372;DHT22;4223;48.724;8.982;2022-07-19T11:12:30;34.50;18.80
8372;DHT22;4223;48.724;8.982;2022-07-19T11:14:59;34.50;16.30
8372;DHT22;4223;48.724;8.982;2022-07-19T11:17:26;34.50;17.20
8372;DHT22;4223;48.724;8.982;2022-07-19T11:20:00;34.30;15.60
8372;DHT22;4223;48.724;8.982;2022-07-19T11:22:33;33.90;16.50
8372;DHT22;4223;48.724;8.982;2022-07-19T11:25:00;33.80;16.90
8372;DHT22;4223;48.724;8.982;2022-07-19T11:27:29;33.90;16.60
8372;DHT22;4223;48.724;8.982;2022-07-19T11:29:58;34.10;15.30
8372;DHT22;4223;48.724;8.982;2022-07-19T11:32:25;34.00;18.40
8372;DHT22;4223;48.724;8.982;2022-07-19T11:34:54;34.10;17.70
8372;DHT22;4223;48.724;8.982;2022-07-19T11:37:26;34.10;15.30
8372;DHT22;4223;48.724;8.982;2022-07-19T11:39:53;34.10;14.40
8372;DHT22;4223;48.724;8.982;2022-07-19T11:42:36;33.90;16.30
8372;DHT22;4223;48.724;8.982;2022-07-19T11:45:14;34.00;16.70
8372;DHT22;4223;48.724;8.982;2022-07-19T11:47:43;33.70;14.80
8372;DHT22;4223;48.724;8.982;2022-07-19T11:50:11;33.70;14.50
8372;DHT22;4223;48.724;8.982;2022-07-19T11:52:47;33.60;14.80
8372;DHT22;4223;48.724;8.982;2022-07-19T11:55:15;33.80;14.30
8372;DHT22;4223;48.724;8.982;2022-07-19T11:57:44;33.80;13.70
8372;DHT22;4223;48.724;8.982;2022-07-19T12:00:12;33.60;14.10
8372;DHT22;4223;48.724;8.982;2022-07-19T12:02:54;33.40;14.60
8372;DHT22;4223;48.724;8.982;2022-07-19T12:05:21;33.10;12.50
8372;DHT22;4223;48.724;8.982;2022-07-19T12:07:50;32.90;13.60
8372;DHT22;4223;48.724;8.982;2022-07-19T12:10:38;33.00;15.20
8372;DHT22;4223;48.724;8.982;2022-07-19T12:13:08;33.10;15.20
8372;DHT22;4223;48.724;8.982;2022-07-19T12:15:50;33.30;26.50
8372;DHT22;4223;48.724;8.982;2022-07-19T12:18:19;33.30;13.40
8372;DHT22;4223;48.724;8.982;2022-07-19T12:21:19;32.90;13.40
8372;DHT22;4223;48.724;8.982;2022-07-19T12:24:08;32.70;13.10
8372;DHT22;4223;48.724;8.982;2022-07-19T12:26:35;32.70;12.90
8372;DHT22;4223;48.724;8.982;2022-07-19T12:29:21;32.90;12.60
8372;DHT22;4223;48.724;8.982;2022-07-19T12:31:49;32.80;12.30
8372;DHT22;4223;48.724;8.982;2022-07-19T12:34:17;33.00;25.90
8372;DHT22;4223;48.724;8.982;2022-07-19T12:36:45;33.20;13.80
8372;DHT22;4223;48.724;8.982;2022-07-19T12:39:24;33.00;13.90
8372;DHT22;4223;48.724;8.982;2022-07-19T12:42:01;33.20;12.60
8372;DHT22;4223;48.724;8.982;2022-07-19T12:44:30;33.00;12.80
8372;DHT22;4223;48.724;8.982;2022-07-19T12:46:57;33.30;11.60
8372;DHT22;4223;48.724;8.982;2022-07-19T12:49:24;33.00;12.60
8372;DHT22;4223;48.724;8.982;2022-07-19T12:51:52;33.10;11.90
8372;DHT22;4223;48.724;8.982;2022-07-19T12:54:18;33.30;11.20
8372;DHT22;4223;48.724;8.982;2022-07-19T12:56:45;33.40;11.60
8372;DHT22;4223;48.724;8.982;2022-07-19T12:59:12;33.60;11.40
8372;DHT22;4223;48.724;8.982;2022-07-19T13:01:58;33.70;12.70
8372;DHT22;4223;48.724;8.982;2022-07-19T13:04:24;33.70;13.00
8372;DHT22;4223;48.724;8.982;2022-07-19T13:06:51;33.70;12.10
8372;DHT22;4223;48.724;8.982;2022-07-19T13:09:18;33.70;11.60
8372;DHT22;4223;48.724;8.982;2022-07-19T13:11:45;33.80;11.00
8372;DHT22;4223;48.724;8.982;2022-07-19T13:14:13;33.90;11.30
8372;DHT22;4223;48.724;8.982;2022-07-19T13:16:40;33.80;10.50
8372;DHT22;4223;48.724;8.982;2022-07-19T13:19:08;33.90;8.80
8372;DHT22;4223;48.724;8.982;2022-07-19T13:21:35;33.40;9.60
8372;DHT22;4223;48.724;8.982;2022-07-19T13:24:02;33.40;11.00
8372;DHT22;4223;48.724;8.982;2022-07-19T13:26:29;33.50;11.50
8372;DHT22;4223;48.724;8.982;2022-07-19T13:28:56;33.80;10.30
8372;DHT22;4223;48.724;8.982;2022-07-19T13:31:23;34.20;11.40
8372;DHT22;4223;48.724;8.982;2022-07-19T13:33:50;34.10;10.30
8372;DHT22;4223;48.724;8.982;2022-07-19T13:36:19;34.10;10.10
8372;DHT22;4223;48.724;8.982;2022-07-19T13:38:45;33.90;9.10
8372;DHT22;4223;48.724;8.982;2022-07-19T13:41:13;33.70;9.10
8372;DHT22;4223;48.724;8.982;2022-07-19T13:43:40;33.50;9.80
8372;DHT22;4223;48.724;8.982;2022-07-19T13:46:07;33.40;10.10
8372;DHT22;4223;48.724;8.982;2022-07-19T13:48:34;33.50;9.30
8372;DHT22;4223;48.724;8.982;2022-07-19T13:51:01;33.70;9.50
8372;DHT22;4223;48.724;8.982;2022-07-19T13:53:29;33.90;10.80
8372;DHT22;4223;48.724;8.982;2022-07-19T13:55:56;33.90;10.00
8372;DHT22;4223;48.724;8.982;2022-07-19T13:58:23;34.10;10.00
8372;DHT22;4223;48.724;8.982;2022-07-19T14:00:50;34.20;9.80
8372;DHT22;4223;48.724;8.982;2022-07-19T14:03:17;34.30;10.00
8372;DHT22;4223;48.724;8.982;2022-07-19T14:05:45;34.30;9.20
8372;DHT22;4223;48.724;8.982;2022-07-19T14:08:12;34.20;10.10
8372;DHT22;4223;48.724;8.982;2022-07-19T14:10:41;34.20;9.00
8372;DHT22;4223;48.724;8.982;2022-07-19T14:13:08;34.20;8.30
8372;DHT22;4223;48.724;8.982;2022-07-19T14:15:35;34.00;7.80
8372;DHT22;4223;48.724;8.982;2022-07-19T14:18:02;33.90;8.60
8372;DHT22;4223;48.724;8.982;2022-07-19T14:20:29;34.00;9.00
8372;DHT22;4223;48.724;8.982;2022-07-19T14:22:56;34.10;8.40
8372;DHT22;4223;48.724;8.982;2022-07-19T14:25:23;34.30;7.10
8372;DHT22;4223;48.724;8.982;2022-07-19T14:27:51;34.20;7.40
8372;DHT22;4223;48.724;8.982;2022-07-19T14:30:18;34.10;7.70
8372;DHT22;4223;48.724;8.982;2022-07-19T14:32:45;34.00;6.60
8372;DHT22;4223;48.724;8.982;2022-07-19T14:35:12;34.00;7.70
8372;DHT22;4223;48.724;8.982;2022-07-19T14:37:42;34.10;8.30
8372;DHT22;4223;48.724;8.982;2022-07-19T14:40:10;34.10;6.20
8372;DHT22;4223;48.724;8.982;2022-07-19T14:42:37;34.10;6.20
8372;DHT22;4223;48.724;8.982;2022-07-19T14:45:06;34.20;6.70
8372;DHT22;4223;48.724;8.982;2022-07-19T14:47:34;34.10;5.50
8372;DHT22;4223;48.724;8.982;2022-07-19T14:50:01;34.00;7.00
8372;DHT22;4223;48.724;8.982;2022-07-19T14:52:29;34.10;7.10
8372;DHT22;4223;48.724;8.982;2022-07-19T14:54:56;34.10;6.60
8372;DHT22;4223;48.724;8.982;2022-07-19T14:57:23;34.20;6.10
8372;DHT22;4223;48.724;8.982;2022-07-19T14:59:50;34.20;19.40
8372;DHT22;4223;48.724;8.982;2022-07-19T15:02:18;34.30;5.60
8372;DHT22;4223;48.724;8.982;2022-07-19T15:04:45;34.30;6.20
8372;DHT22;4223;48.724;8.982;2022-07-19T15:07:13;34.30;6.60
8372;DHT22;4223;48.724;8.982;2022-07-19T15:09:40;34.50;6.20
8372;DHT22;4223;48.724;8.982;2022-07-19T15:12:07;34.40;6.10
8372;DHT22;4223;48.724;8.982;2022-07-19T15:14:34;34.40;5.20
8372;DHT22;4223;48.724;8.982;2022-07-19T15:17:02;34.40;5.70
8372;DHT22;4223;48.724;8.982;2022-07-19T15:19:31;34.40;6.00
8372;DHT22;4223;48.724;8.982;2022-07-19T15:21:58;34.50;4.90
8372;DHT22;4223;48.724;8.982;2022-07-19T15:24:25;34.50;4.90
8372;DHT22;4223;48.724;8.982;2022-07-19T15:26:52;34.40;3.70
8372;DHT22;4223;48.724;8.982;2022-07-19T15:29:19;34.30;4.60
8372;DHT22;4223;48.724;8.982;2022-07-19T15:31:46;34.20;5.60
8372;DHT22;4223;48.724;8.982;2022-07-19T15:34:13;34.20;3.80
8372;DHT22;4223;48.724;8.982;2022-07-19T15:36:42;34.20;4.10
8372;DHT22;4223;48.724;8.982;2022-07-19T15:39:08;34.10;5.00
8372;DHT22;4223;48.724;8.982;2022-07-19T15:41:35;34.10;5.70
8372;DHT22;4223;48.724;8.982;2022-07-19T15:44:03;34.30;6.60
8372;DHT22;4223;48.724;8.982;2022-07-19T15:46:30;34.50;6.80
8372;DHT22;4223;48.724;8.982;2022-07-19T15:48:59;34.60;6.40
8372;DHT22;4223;48.724;8.982;2022-07-19T15:51:26;34.70;4.80
8372;DHT22;4223;48.724;8.982;2022-07-19T15:53:55;34.70;8.10
8372;DHT22;4223;48.724;8.982;2022-07-19T15:56:22;34.60;7.20
8372;DHT22;4223;48.724;8.982;2022-07-19T15:58:49;34.50;3.80
8372;DHT22;4223;48.724;8.982;2022-07-19T16:01:17;34.50;3.40
8372;DHT22;4223;48.724;8.982;2022-07-19T16:03:44;34.40;7.30
8372;DHT22;4223;48.724;8.982;2022-07-19T16:06:11;34.30;6.50
8372;DHT22;4223;48.724;8.982;2022-07-19T16:08:38;34.30;4.60
8372;DHT22;4223;48.724;8.982;2022-07-19T16:11:07;34.40;4.50
8372;DHT22;4223;48.724;8.982;2022-07-19T16:13:34;34.40;5.80
8372;DHT22;4223;48.724;8.982;2022-07-19T16:16:01;34.40;6.00
8372;DHT22;4223;48.724;8.982;2022-07-19T16:18:28;34.30;5.70
8372;DHT22;4223;48.724;8.982;2022-07-19T16:20:55;34.30;4.60